Caldwell, ID

3:46 PM MDT on October 21, 2014 (GMT -0600)
Boise Air Term | Change Station
CLOSE
Current Station
Airport
Location: Boise,
Elevation: 2867 ft
Nearby Weather Stations

Elev 2867 ft 43.57 °N, 116.24 °W | Updated 53 minutes ago

Partly Cloudy
Partly Cloudy
57 °F
Feels Like 57 °F
N
6
Wind Variable Wind from NW

Today
High -- | Low -- °F
--% Chance of Precip.
Yesterday
High -- | Low -- °F
Precip. -- in
8:08 AM 6:53 PM
Waning Crescent, 4% visible
Pressure 30.02 in
Visibility 10.0 miles
Clouds Scattered Clouds 4800 ft
Overcast 7000 ft
Dew Point 39 °F
Humidity 51%
Rainfall 0.27 in
Snow Depth Not available.
UV 1 out of 12
Pollen .40 out of 12
PM2.5 Good
Flu Activity Sporadic
METAR KBOI 212053Z 31005KT 10SM SCT048 OVC070 14/04 A3004 RMK AO2 SLP165 T01390039 51003

More Conditions Fewer Conditions

Pressure 30.02 in
Visibility 10.0 miles
Clouds Scattered Clouds 4800 ft
Overcast 7000 ft
Dew Point 39 °F
Humidity 51%
Rainfall 0.27 in
Snow Depth Not available.
UV 1 out of 12
Pollen .40 out of 12
PM2.5 Good
Flu Activity Sporadic
METAR KBOI 212053Z 31005KT 10SM SCT048 OVC070 14/04 A3004 RMK AO2 SLP165 T01390039 51003

More Conditions Fewer Conditions

10-Day Weather Forecast

Almanac

Astronomy

Oct. 21, 2014 Rise Set
Actual Time 8:08 AM MDT 6:53 PM MDT
Civil Twilight 7:39 AM MDT 7:22 PM MDT
Nautical Twilight 7:06 AM MDT 7:56 PM MDT
Astronomical Twilight 6:32 AM MDT 8:29 PM MDT
Moon 5:53 AM MDT 5:53 PM MDT
Length of Visible Light 11h 43m
Length of Day
10h 44m
Tomorrow will be 2m 50s shorter.
Waning Crescent, 4% of the Moon is Illuminated
Today
Waning Crescent
Oct 23
New
Oct 30
First Quarter
Nov 6
Full
Nov 14
Last Quarter

Today's Extremes

State Highs State Lows

Community

WunderPhotos

Upload Photos

1,763,785 photos uploaded!

Nearby

Air Quality

  Air Quality AQ Index Pollutant
Yesterday Good
PM2.5
Yesterday Good
OZONE
Current Good
PM2.5
Tuesday Good
PM2.5
Tuesday Good
OZONE
Wednesday Good
OZONE
Wednesday Good
PM2.5
Thursday Good
OZONE

Snow Depth

Station Depth Elevation
Bogus Basin 1 in 6340 ft
Van Wyck 0 in 4920 ft
South Mountain 1 in 6500 ft
Trinity Mountain 4 in 7770 ft
Cozy Cove 1 in 5380 ft

Earthquake Activity

City Distance Mag. Time & Date
No recent earthquake activity has been reported nearby.
Minimum magnitude displayed is 2.5.

Coastal Water Temperatures

Place Temperature
No Stations Reporting

Nearby Weather Stations